sensor_id;sensor_type;location;lat;lon;timestamp;pressure;altitude;pressure_sealevel;temperature;humidity
6393;BME280;3229;42.674;23.282;2023-02-04T00:00:00;94397.13;;;8.24;50.19
6393;BME280;3229;42.674;23.282;2023-02-04T00:02:27;94402.09;;;8.26;50.06
6393;BME280;3229;42.674;23.282;2023-02-04T00:04:56;94383.72;;;8.22;50.24
6393;BME280;3229;42.674;23.282;2023-02-04T00:07:23;94367.19;;;8.07;50.31
6393;BME280;3229;42.674;23.282;2023-02-04T00:09:50;94387.31;;;8.20;50.43
6393;BME280;3229;42.674;23.282;2023-02-04T00:12:17;94376.72;;;8.15;50.25
6393;BME280;3229;42.674;23.282;2023-02-04T00:14:43;94365.75;;;8.14;50.47
6393;BME280;3229;42.674;23.282;2023-02-04T00:17:10;94370.69;;;8.16;50.61
6393;BME280;3229;42.674;23.282;2023-02-04T00:19:38;94367.06;;;8.09;50.86
6393;BME280;3229;42.674;23.282;2023-02-04T00:22:06;94374.44;;;8.12;50.93
6393;BME280;3229;42.674;23.282;2023-02-04T00:24:34;94375.38;;;8.11;51.08
6393;BME280;3229;42.674;23.282;2023-02-04T00:27:01;94352.81;;;7.87;51.24
6393;BME280;3229;42.674;23.282;2023-02-04T00:29:28;94354.59;;;8.05;51.41
6393;BME280;3229;42.674;23.282;2023-02-04T00:31:55;94357.94;;;8.06;51.64
6393;BME280;3229;42.674;23.282;2023-02-04T00:34:22;94356.34;;;8.05;51.87
6393;BME280;3229;42.674;23.282;2023-02-04T00:36:48;94354.03;;;8.02;51.78
6393;BME280;3229;42.674;23.282;2023-02-04T00:39:16;94352.59;;;7.99;52.20
6393;BME280;3229;42.674;23.282;2023-02-04T00:41:43;94350.28;;;7.96;52.38
6393;BME280;3229;42.674;23.282;2023-02-04T00:44:10;94340.91;;;7.97;52.26
6393;BME280;3229;42.674;23.282;2023-02-04T00:46:38;94363.69;;;7.98;52.41
6393;BME280;3229;42.674;23.282;2023-02-04T00:49:05;94321.22;;;7.99;52.37
6393;BME280;3229;42.674;23.282;2023-02-04T00:51:35;94319.47;;;7.99;52.55
6393;BME280;3229;42.674;23.282;2023-02-04T00:54:02;94339.06;;;7.99;52.50
6393;BME280;3229;42.674;23.282;2023-02-04T00:56:31;94338.22;;;7.98;52.39
6393;BME280;3229;42.674;23.282;2023-02-04T00:58:58;94331.41;;;7.99;52.72
6393;BME280;3229;42.674;23.282;2023-02-04T01:01:25;94327.22;;;7.98;52.81
6393;BME280;3229;42.674;23.282;2023-02-04T01:03:52;94332.47;;;7.96;52.95
6393;BME280;3229;42.674;23.282;2023-02-04T01:06:18;94304.56;;;7.85;53.04
6393;BME280;3229;42.674;23.282;2023-02-04T01:08:45;94310.59;;;7.94;53.12
6393;BME280;3229;42.674;23.282;2023-02-04T01:11:12;94312.34;;;7.93;53.40
6393;BME280;3229;42.674;23.282;2023-02-04T01:13:40;94305.00;;;7.90;53.48
6393;BME280;3229;42.674;23.282;2023-02-04T01:16:07;94275.34;;;7.70;53.50
6393;BME280;3229;42.674;23.282;2023-02-04T01:18:34;94295.88;;;7.88;53.75
6393;BME280;3229;42.674;23.282;2023-02-04T01:21:01;94309.41;;;7.88;53.85
6393;BME280;3229;42.674;23.282;2023-02-04T01:23:28;94305.34;;;7.86;53.97
6393;BME280;3229;42.674;23.282;2023-02-04T01:25:55;94267.97;;;7.67;53.88
6393;BME280;3229;42.674;23.282;2023-02-04T01:28:22;94291.84;;;7.85;54.11
6393;BME280;3229;42.674;23.282;2023-02-04T01:30:50;94281.94;;;7.82;54.17
6393;BME280;3229;42.674;23.282;2023-02-04T01:33:17;94275.91;;;7.83;54.23
6393;BME280;3229;42.674;23.282;2023-02-04T01:35:44;94276.03;;;7.82;54.36
6393;BME280;3229;42.674;23.282;2023-02-04T01:38:11;94278.69;;;7.80;54.47
6393;BME280;3229;42.674;23.282;2023-02-04T01:40:38;94280.31;;;7.81;54.55
6393;BME280;3229;42.674;23.282;2023-02-04T01:43:05;94272.00;;;7.79;54.48
6393;BME280;3229;42.674;23.282;2023-02-04T01:45:32;94279.50;;;7.80;54.56
6393;BME280;3229;42.674;23.282;2023-02-04T01:48:02;94258.97;;;7.72;54.58
6393;BME280;3229;42.674;23.282;2023-02-04T01:50:29;94267.84;;;7.78;54.81
6393;BME280;3229;42.674;23.282;2023-02-04T01:52:56;94274.69;;;7.77;54.67
6393;BME280;3229;42.674;23.282;2023-02-04T01:55:26;94252.53;;;7.68;55.00
6393;BME280;3229;42.674;23.282;2023-02-04T01:57:54;94267.31;;;7.74;55.04
6393;BME280;3229;42.674;23.282;2023-02-04T02:00:25;94261.41;;;7.74;54.69
6393;BME280;3229;42.674;23.282;2023-02-04T02:02:52;94264.06;;;7.72;55.17
6393;BME280;3229;42.674;23.282;2023-02-04T02:05:22;94255.91;;;7.69;55.32
6393;BME280;3229;42.674;23.282;2023-02-04T02:07:52;94253.22;;;7.70;55.22
6393;BME280;3229;42.674;23.282;2023-02-04T02:10:19;94242.25;;;7.70;55.25
6393;BME280;3229;42.674;23.282;2023-02-04T02:12:47;94206.72;;;7.49;55.35
6393;BME280;3229;42.674;23.282;2023-02-04T02:15:15;94206.19;;;7.55;55.14
6393;BME280;3229;42.674;23.282;2023-02-04T02:17:43;94235.69;;;7.67;55.42
6393;BME280;3229;42.674;23.282;2023-02-04T02:20:12;94238.22;;;7.67;55.39
6393;BME280;3229;42.674;23.282;2023-02-04T02:22:48;94240.66;;;7.69;55.51
6393;BME280;3229;42.674;23.282;2023-02-04T02:25:19;94232.19;;;7.68;55.41
6393;BME280;3229;42.674;23.282;2023-02-04T02:27:46;94233.13;;;7.67;55.39
6393;BME280;3229;42.674;23.282;2023-02-04T02:30:14;94205.94;;;7.68;55.47
6393;BME280;3229;42.674;23.282;2023-02-04T02:32:42;94191.47;;;7.68;55.66
6393;BME280;3229;42.674;23.282;2023-02-04T02:35:09;94194.97;;;7.67;55.67
6393;BME280;3229;42.674;23.282;2023-02-04T02:37:36;94187.31;;;7.67;55.43
6393;BME280;3229;42.674;23.282;2023-02-04T02:40:04;94169.66;;;7.66;55.75
6393;BME280;3229;42.674;23.282;2023-02-04T02:42:32;94168.84;;;7.65;55.79
6393;BME280;3229;42.674;23.282;2023-02-04T02:45:03;94167.25;;;7.64;55.72
6393;BME280;3229;42.674;23.282;2023-02-04T02:47:32;94165.75;;;7.62;55.73
6393;BME280;3229;42.674;23.282;2023-02-04T02:49:59;94161.63;;;7.61;55.92
6393;BME280;3229;42.674;23.282;2023-02-04T02:52:25;94141.78;;;7.54;55.79
6393;BME280;3229;42.674;23.282;2023-02-04T02:54:52;94148.50;;;7.56;55.73
6393;BME280;3229;42.674;23.282;2023-02-04T02:57:21;94144.59;;;7.51;55.99
6393;BME280;3229;42.674;23.282;2023-02-04T02:59:50;94148.91;;;7.61;55.88
6393;BME280;3229;42.674;23.282;2023-02-04T03:02:19;94153.19;;;7.60;56.09
6393;BME280;3229;42.674;23.282;2023-02-04T03:04:49;94151.31;;;7.62;55.90
6393;BME280;3229;42.674;23.282;2023-02-04T03:07:19;94132.69;;;7.62;55.93
6393;BME280;3229;42.674;23.282;2023-02-04T03:09:47;94143.66;;;7.62;55.97
6393;BME280;3229;42.674;23.282;2023-02-04T03:12:15;94146.22;;;7.62;56.04
6393;BME280;3229;42.674;23.282;2023-02-04T03:14:42;94148.75;;;7.62;55.77
6393;BME280;3229;42.674;23.282;2023-02-04T03:17:10;94178.88;;;7.67;55.97
6393;BME280;3229;42.674;23.282;2023-02-04T03:19:38;94164.31;;;7.69;55.82
6393;BME280;3229;42.674;23.282;2023-02-04T03:22:05;94166.72;;;7.70;56.01
6393;BME280;3229;42.674;23.282;2023-02-04T03:24:32;94146.34;;;7.70;56.04
6393;BME280;3229;42.674;23.282;2023-02-04T03:27:00;94149.84;;;7.69;56.06
6393;BME280;3229;42.674;23.282;2023-02-04T03:29:27;94158.28;;;7.70;56.07
6393;BME280;3229;42.674;23.282;2023-02-04T03:31:53;94148.91;;;7.70;55.95
6393;BME280;3229;42.674;23.282;2023-02-04T03:34:22;94164.16;;;7.70;56.08
6393;BME280;3229;42.674;23.282;2023-02-04T03:36:48;94167.66;;;7.69;56.05
6393;BME280;3229;42.674;23.282;2023-02-04T03:39:15;94165.75;;;7.71;56.08
6393;BME280;3229;42.674;23.282;2023-02-04T03:41:42;94146.22;;;7.72;55.99
6393;BME280;3229;42.674;23.282;2023-02-04T03:44:09;94152.09;;;7.72;56.19
6393;BME280;3229;42.674;23.282;2023-02-04T03:46:35;94127.47;;;7.73;56.00
6393;BME280;3229;42.674;23.282;2023-02-04T03:49:02;94134.28;;;7.72;56.09
6393;BME280;3229;42.674;23.282;2023-02-04T03:51:30;94137.66;;;7.73;55.96
6393;BME280;3229;42.674;23.282;2023-02-04T03:53:57;94146.09;;;7.73;56.04
6393;BME280;3229;42.674;23.282;2023-02-04T03:56:24;94116.34;;;7.74;55.98
6393;BME280;3229;42.674;23.282;2023-02-04T03:58:51;94112.06;;;7.74;56.00
6393;BME280;3229;42.674;23.282;2023-02-04T04:01:17;94091.31;;;7.69;56.05
6393;BME280;3229;42.674;23.282;2023-02-04T04:03:44;94092.34;;;7.76;56.03
6393;BME280;3229;42.674;23.282;2023-02-04T04:06:11;94099.06;;;7.77;56.08
6393;BME280;3229;42.674;23.282;2023-02-04T04:08:39;94081.91;;;7.79;55.99
6393;BME280;3229;42.674;23.282;2023-02-04T04:11:06;94063.94;;;7.81;55.91
6393;BME280;3229;42.674;23.282;2023-02-04T04:13:33;94062.75;;;7.85;55.69
6393;BME280;3229;42.674;23.282;2023-02-04T04:15:59;94058.19;;;7.89;55.73
6393;BME280;3229;42.674;23.282;2023-02-04T04:18:27;94063.81;;;7.92;55.61
6393;BME280;3229;42.674;23.282;2023-02-04T04:20:54;94039.69;;;7.96;55.76
6393;BME280;3229;42.674;23.282;2023-02-04T04:23:21;94054.53;;;8.01;55.59
6393;BME280;3229;42.674;23.282;2023-02-04T04:25:49;94047.28;;;8.06;55.58
6393;BME280;3229;42.674;23.282;2023-02-04T04:28:17;94053.72;;;8.10;55.56
6393;BME280;3229;42.674;23.282;2023-02-04T04:30:43;94056.25;;;8.10;55.53
6393;BME280;3229;42.674;23.282;2023-02-04T04:33:10;94065.75;;;8.18;55.45
6393;BME280;3229;42.674;23.282;2023-02-04T04:35:37;94074.72;;;8.22;55.42
6393;BME280;3229;42.674;23.282;2023-02-04T04:38:04;94071.91;;;8.25;55.39
6393;BME280;3229;42.674;23.282;2023-02-04T04:40:31;94070.97;;;8.26;55.47
6393;BME280;3229;42.674;23.282;2023-02-04T04:42:59;94083.81;;;8.34;55.39
6393;BME280;3229;42.674;23.282;2023-02-04T04:45:25;94072.94;;;8.32;55.17
6393;BME280;3229;42.674;23.282;2023-02-04T04:47:52;94087.44;;;8.41;55.24
6393;BME280;3229;42.674;23.282;2023-02-04T04:50:19;94087.94;;;8.45;55.13
6393;BME280;3229;42.674;23.282;2023-02-04T04:52:46;94102.97;;;8.48;55.18
6393;BME280;3229;42.674;23.282;2023-02-04T04:55:13;94091.69;;;8.50;55.05
6393;BME280;3229;42.674;23.282;2023-02-04T04:57:40;94096.66;;;8.52;55.07
6393;BME280;3229;42.674;23.282;2023-02-04T05:00:14;94098.78;;;8.57;55.24
6393;BME280;3229;42.674;23.282;2023-02-04T05:02:41;94084.19;;;8.49;55.07
6393;BME280;3229;42.674;23.282;2023-02-04T05:05:09;94097.69;;;8.59;54.97
6393;BME280;3229;42.674;23.282;2023-02-04T05:07:36;94092.19;;;8.64;55.10
6393;BME280;3229;42.674;23.282;2023-02-04T05:10:03;94093.47;;;8.68;55.08
6393;BME280;3229;42.674;23.282;2023-02-04T05:12:30;94090.88;;;8.60;55.17
6393;BME280;3229;42.674;23.282;2023-02-04T05:14:57;94100.75;;;8.72;55.04
6393;BME280;3229;42.674;23.282;2023-02-04T05:17:25;94116.84;;;8.73;55.13
6393;BME280;3229;42.674;23.282;2023-02-04T05:19:52;94119.38;;;8.73;55.20
6393;BME280;3229;42.674;23.282;2023-02-04T05:22:18;94124.47;;;8.73;55.25
6393;BME280;3229;42.674;23.282;2023-02-04T05:24:45;94123.53;;;8.74;55.31
6393;BME280;3229;42.674;23.282;2023-02-04T05:27:12;94123.53;;;8.74;55.62
6393;BME280;3229;42.674;23.282;2023-02-04T05:29:39;94140.56;;;8.73;55.70
6393;BME280;3229;42.674;23.282;2023-02-04T05:32:05;94144.88;;;8.73;55.64
6393;BME280;3229;42.674;23.282;2023-02-04T05:34:34;94147.00;;;8.68;55.82
6393;BME280;3229;42.674;23.282;2023-02-04T05:37:00;94175.47;;;8.73;55.78
6393;BME280;3229;42.674;23.282;2023-02-04T05:39:27;94179.75;;;8.72;55.70
6393;BME280;3229;42.674;23.282;2023-02-04T05:41:54;94181.34;;;8.73;55.82
6393;BME280;3229;42.674;23.282;2023-02-04T05:44:20;94179.75;;;8.72;55.95
6393;BME280;3229;42.674;23.282;2023-02-04T05:46:47;94188.19;;;8.73;56.13
6393;BME280;3229;42.674;23.282;2023-02-04T05:49:14;94190.88;;;8.71;56.16
6393;BME280;3229;42.674;23.282;2023-02-04T05:51:42;94162.03;;;8.71;56.03
6393;BME280;3229;42.674;23.282;2023-02-04T05:54:09;94174.78;;;8.71;56.19
6393;BME280;3229;42.674;23.282;2023-02-04T05:56:36;94155.19;;;8.71;56.16
6393;BME280;3229;42.674;23.282;2023-02-04T05:59:02;94150.38;;;8.68;56.16
6393;BME280;3229;42.674;23.282;2023-02-04T06:01:29;94134.56;;;8.65;56.22
6393;BME280;3229;42.674;23.282;2023-02-04T06:03:56;94120.22;;;8.64;56.17
6393;BME280;3229;42.674;23.282;2023-02-04T06:06:23;94129.09;;;8.60;56.32
6393;BME280;3229;42.674;23.282;2023-02-04T06:08:51;94139.13;;;8.61;56.37
6393;BME280;3229;42.674;23.282;2023-02-04T06:11:17;94128.94;;;8.61;56.21
6393;BME280;3229;42.674;23.282;2023-02-04T06:13:44;94141.41;;;8.64;56.16
6393;BME280;3229;42.674;23.282;2023-02-04T06:16:11;94136.44;;;8.72;55.96
6393;BME280;3229;42.674;23.282;2023-02-04T06:18:38;94147.81;;;8.78;55.91
6393;BME280;3229;42.674;23.282;2023-02-04T06:21:04;94150.44;;;8.86;55.81
6393;BME280;3229;42.674;23.282;2023-02-04T06:23:31;94161.69;;;8.93;55.68
6393;BME280;3229;42.674;23.282;2023-02-04T06:26:00;94166.50;;;8.96;55.94
6393;BME280;3229;42.674;23.282;2023-02-04T06:28:27;94160.19;;;9.00;55.52
6393;BME280;3229;42.674;23.282;2023-02-04T06:30:54;94161.66;;;9.03;55.67
6393;BME280;3229;42.674;23.282;2023-02-04T06:33:20;94175.84;;;9.05;55.66
6393;BME280;3229;42.674;23.282;2023-02-04T06:35:48;94181.47;;;9.09;55.66
6393;BME280;3229;42.674;23.282;2023-02-04T06:38:15;94171.81;;;9.13;55.48
6393;BME280;3229;42.674;23.282;2023-02-04T06:40:43;94176.47;;;9.17;55.58
6393;BME280;3229;42.674;23.282;2023-02-04T06:43:15;94083.06;;;8.61;55.56
6393;BME280;3229;42.674;23.282;2023-02-04T06:45:42;94178.38;;;9.43;55.00
6393;BME280;3229;42.674;23.282;2023-02-04T06:48:08;94180.06;;;9.88;54.71
6393;BME280;3229;42.674;23.282;2023-02-04T06:50:35;94170.47;;;10.43;54.42
6393;BME280;3229;42.674;23.282;2023-02-04T06:53:02;94169.81;;;10.93;54.57
6393;BME280;3229;42.674;23.282;2023-02-04T06:55:29;94172.03;;;11.30;54.08
6393;BME280;3229;42.674;23.282;2023-02-04T06:57:55;94181.59;;;11.71;53.77
6393;BME280;3229;42.674;23.282;2023-02-04T07:00:24;94172.38;;;12.02;53.18
6393;BME280;3229;42.674;23.282;2023-02-04T07:02:50;94173.69;;;12.23;52.72
6393;BME280;3229;42.674;23.282;2023-02-04T07:05:17;94168.38;;;12.41;52.47
6393;BME280;3229;42.674;23.282;2023-02-04T07:07:45;94171.75;;;12.49;52.40
6393;BME280;3229;42.674;23.282;2023-02-04T07:10:11;94163.06;;;12.67;51.71
6393;BME280;3229;42.674;23.282;2023-02-04T07:12:38;94172.13;;;12.94;51.53
6393;BME280;3229;42.674;23.282;2023-02-04T07:15:06;94165.94;;;13.19;51.29
6393;BME280;3229;42.674;23.282;2023-02-04T07:17:34;94163.47;;;13.42;51.14
6393;BME280;3229;42.674;23.282;2023-02-04T07:20:00;94161.78;;;13.58;51.08
6393;BME280;3229;42.674;23.282;2023-02-04T07:22:27;94167.78;;;13.73;50.86
6393;BME280;3229;42.674;23.282;2023-02-04T07:24:54;94148.91;;;13.89;50.64
6393;BME280;3229;42.674;23.282;2023-02-04T07:27:21;94144.19;;;14.00;50.42
6393;BME280;3229;42.674;23.282;2023-02-04T07:29:47;94145.41;;;14.27;49.95
6393;BME280;3229;42.674;23.282;2023-02-04T07:32:14;94139.31;;;14.66;49.52
6393;BME280;3229;42.674;23.282;2023-02-04T07:34:42;94124.31;;;14.85;49.54
6393;BME280;3229;42.674;23.282;2023-02-04T07:37:09;94131.34;;;14.91;49.24
6393;BME280;3229;42.674;23.282;2023-02-04T07:39:36;94134.78;;;14.98;49.12
6393;BME280;3229;42.674;23.282;2023-02-04T07:42:03;94141.34;;;15.30;48.77
6393;BME280;3229;42.674;23.282;2023-02-04T07:44:29;94134.50;;;15.73;48.28
6393;BME280;3229;42.674;23.282;2023-02-04T07:46:56;94149.00;;;16.17;48.08
6393;BME280;3229;42.674;23.282;2023-02-04T07:49:23;94139.75;;;16.51;47.61
6393;BME280;3229;42.674;23.282;2023-02-04T07:51:51;94132.22;;;16.77;47.27
6393;BME280;3229;42.674;23.282;2023-02-04T07:54:18;94128.19;;;17.03;47.13
6393;BME280;3229;42.674;23.282;2023-02-04T07:56:44;94134.00;;;17.18;47.00
6393;BME280;3229;42.674;23.282;2023-02-04T07:59:11;94134.63;;;17.20;46.86
6393;BME280;3229;42.674;23.282;2023-02-04T08:01:38;94138.16;;;17.13;46.81
6393;BME280;3229;42.674;23.282;2023-02-04T08:04:05;94141.31;;;17.01;46.91
6393;BME280;3229;42.674;23.282;2023-02-04T08:06:32;94131.66;;;16.82;47.01
6393;BME280;3229;42.674;23.282;2023-02-04T08:09:00;94140.69;;;16.71;47.14
6393;BME280;3229;42.674;23.282;2023-02-04T08:11:26;94142.94;;;16.53;46.99
6393;BME280;3229;42.674;23.282;2023-02-04T08:13:53;94150.53;;;16.33;47.09
6393;BME280;3229;42.674;23.282;2023-02-04T08:16:20;94145.75;;;16.09;47.23
6393;BME280;3229;42.674;23.282;2023-02-04T08:18:47;94151.69;;;15.88;46.99
6393;BME280;3229;42.674;23.282;2023-02-04T08:21:14;94150.09;;;15.65;46.89
6393;BME280;3229;42.674;23.282;2023-02-04T08:23:40;94149.81;;;15.45;46.99
6393;BME280;3229;42.674;23.282;2023-02-04T08:26:09;94147.19;;;15.24;47.18
6393;BME280;3229;42.674;23.282;2023-02-04T08:28:36;94140.81;;;15.05;47.27
6393;BME280;3229;42.674;23.282;2023-02-04T08:31:04;94134.19;;;14.81;47.26
6393;BME280;3229;42.674;23.282;2023-02-04T08:33:31;94133.00;;;14.69;47.14
6393;BME280;3229;42.674;23.282;2023-02-04T08:35:58;94130.78;;;14.51;47.14
6393;BME280;3229;42.674;23.282;2023-02-04T08:38:24;94131.78;;;14.42;47.35
6393;BME280;3229;42.674;23.282;2023-02-04T08:40:51;94124.50;;;14.30;47.57
6393;BME280;3229;42.674;23.282;2023-02-04T08:43:19;94119.16;;;14.17;47.60
6393;BME280;3229;42.674;23.282;2023-02-04T08:45:46;94009.41;;;13.34;47.59
6393;BME280;3229;42.674;23.282;2023-02-04T08:48:13;94127.59;;;14.03;47.51
6393;BME280;3229;42.674;23.282;2023-02-04T08:50:40;94135.53;;;13.93;47.64
6393;BME280;3229;42.674;23.282;2023-02-04T08:53:07;94129.66;;;13.85;47.69
6393;BME280;3229;42.674;23.282;2023-02-04T08:55:33;94126.34;;;13.76;47.96
6393;BME280;3229;42.674;23.282;2023-02-04T08:58:00;94128.03;;;13.69;47.83
6393;BME280;3229;42.674;23.282;2023-02-04T09:00:29;94124.34;;;13.63;47.92
6393;BME280;3229;42.674;23.282;2023-02-04T09:02:55;94130.16;;;13.57;47.98
6393;BME280;3229;42.674;23.282;2023-02-04T09:05:22;94112.06;;;13.50;47.94
6393;BME280;3229;42.674;23.282;2023-02-04T09:07:49;94110.00;;;13.46;48.17
6393;BME280;3229;42.674;23.282;2023-02-04T09:10:16;94112.28;;;13.41;48.22
6393;BME280;3229;42.674;23.282;2023-02-04T09:12:43;94110.41;;;13.35;48.18
6393;BME280;3229;42.674;23.282;2023-02-04T09:15:10;94100.78;;;13.28;48.22
6393;BME280;3229;42.674;23.282;2023-02-04T09:17:38;94097.75;;;13.25;48.26
6393;BME280;3229;42.674;23.282;2023-02-04T09:20:09;94086.91;;;13.06;48.34
6393;BME280;3229;42.674;23.282;2023-02-04T09:22:36;94106.44;;;13.16;48.54
6393;BME280;3229;42.674;23.282;2023-02-04T09:25:03;94108.38;;;13.14;48.40
6393;BME280;3229;42.674;23.282;2023-02-04T09:27:30;94111.44;;;13.09;48.43
6393;BME280;3229;42.674;23.282;2023-02-04T09:29:57;94107.44;;;13.06;48.30
6393;BME280;3229;42.674;23.282;2023-02-04T09:32:23;94106.50;;;12.99;48.42
6393;BME280;3229;42.674;23.282;2023-02-04T09:34:52;94115.81;;;13.00;48.55
6393;BME280;3229;42.674;23.282;2023-02-04T09:37:18;94096.94;;;12.85;48.54
6393;BME280;3229;42.674;23.282;2023-02-04T09:39:45;94114.88;;;12.93;48.61
6393;BME280;3229;42.674;23.282;2023-02-04T09:42:12;94107.50;;;12.90;48.81
6393;BME280;3229;42.674;23.282;2023-02-04T09:44:40;94108.66;;;12.88;48.85
6393;BME280;3229;42.674;23.282;2023-02-04T09:47:09;94104.50;;;12.87;48.81
6393;BME280;3229;42.674;23.282;2023-02-04T09:49:37;94101.28;;;12.85;48.86
6393;BME280;3229;42.674;23.282;2023-02-04T09:52:09;94103.38;;;12.81;48.81
6393;BME280;3229;42.674;23.282;2023-02-04T09:54:37;94094.25;;;12.78;49.01
6393;BME280;3229;42.674;23.282;2023-02-04T09:57:09;94096.81;;;12.78;49.00
6393;BME280;3229;42.674;23.282;2023-02-04T09:59:37;94080.94;;;12.75;49.21
6393;BME280;3229;42.674;23.282;2023-02-04T10:02:16;94079.69;;;12.71;49.22
6393;BME280;3229;42.674;23.282;2023-02-04T10:04:45;94081.44;;;12.70;49.54
6393;BME280;3229;42.674;23.282;2023-02-04T10:07:16;94050.56;;;12.47;49.52
6393;BME280;3229;42.674;23.282;2023-02-04T10:09:47;94069.13;;;12.66;49.72
6393;BME280;3229;42.674;23.282;2023-02-04T10:12:15;94070.22;;;12.63;49.96
6393;BME280;3229;42.674;23.282;2023-02-04T10:14:42;94076.34;;;12.62;49.63
6393;BME280;3229;42.674;23.282;2023-02-04T10:17:10;94076.47;;;12.61;49.93
6393;BME280;3229;42.674;23.282;2023-02-04T10:19:38;94050.56;;;12.47;49.96
6393;BME280;3229;42.674;23.282;2023-02-04T10:22:16;94045.31;;;12.41;49.91
6393;BME280;3229;42.674;23.282;2023-02-04T10:24:43;94055.34;;;12.59;49.80
6393;BME280;3229;42.674;23.282;2023-02-04T10:27:11;94033.56;;;12.46;49.73
6393;BME280;3229;42.674;23.282;2023-02-04T10:29:40;94054.84;;;12.63;49.81
6393;BME280;3229;42.674;23.282;2023-02-04T10:32:26;94062.22;;;12.66;49.86
6393;BME280;3229;42.674;23.282;2023-02-04T10:34:56;94060.28;;;12.68;49.93
6393;BME280;3229;42.674;23.282;2023-02-04T10:37:25;94063.81;;;12.67;49.89
6393;BME280;3229;42.674;23.282;2023-02-04T10:39:52;94061.25;;;12.67;50.12
6393;BME280;3229;42.674;23.282;2023-02-04T10:42:21;94052.94;;;12.65;49.89
6393;BME280;3229;42.674;23.282;2023-02-04T10:44:48;94052.28;;;12.63;50.28
6393;BME280;3229;42.674;23.282;2023-02-04T10:47:17;94051.47;;;12.63;50.36
6393;BME280;3229;42.674;23.282;2023-02-04T10:49:52;94051.00;;;12.59;50.42
6393;BME280;3229;42.674;23.282;2023-02-04T10:52:20;94046.53;;;12.61;50.44
6393;BME280;3229;42.674;23.282;2023-02-04T10:54:49;94043.63;;;12.64;50.63
6393;BME280;3229;42.674;23.282;2023-02-04T10:57:17;94039.28;;;12.65;50.53
6393;BME280;3229;42.674;23.282;2023-02-04T10:59:47;94029.53;;;12.60;50.60
6393;BME280;3229;42.674;23.282;2023-02-04T11:02:40;94039.94;;;12.67;50.66
6393;BME280;3229;42.674;23.282;2023-02-04T11:05:12;94029.50;;;12.68;50.69
6393;BME280;3229;42.674;23.282;2023-02-04T11:07:39;94025.00;;;12.70;50.70
6393;BME280;3229;42.674;23.282;2023-02-04T11:10:12;94032.34;;;12.73;50.93
6393;BME280;3229;42.674;23.282;2023-02-04T11:12:42;94020.16;;;12.75;50.92
6393;BME280;3229;42.674;23.282;2023-02-04T11:15:44;94012.94;;;12.79;50.85
6393;BME280;3229;42.674;23.282;2023-02-04T11:18:24;94017.72;;;12.82;50.59
6393;BME280;3229;42.674;23.282;2023-02-04T11:20:54;94010.50;;;12.86;50.74
6393;BME280;3229;42.674;23.282;2023-02-04T11:23:33;94015.75;;;12.92;50.64
6393;BME280;3229;42.674;23.282;2023-02-04T11:26:08;93989.06;;;12.78;50.66
6393;BME280;3229;42.674;23.282;2023-02-04T11:28:55;94007.09;;;12.93;50.74
6393;BME280;3229;42.674;23.282;2023-02-04T11:31:29;94019.59;;;12.96;50.65
6393;BME280;3229;42.674;23.282;2023-02-04T11:34:10;94011.72;;;12.98;50.73
6393;BME280;3229;42.674;23.282;2023-02-04T11:36:55;94015.06;;;12.98;50.71
6393;BME280;3229;42.674;23.282;2023-02-04T11:39:27;94018.63;;;12.97;50.73
6393;BME280;3229;42.674;23.282;2023-02-04T11:41:57;94017.81;;;12.97;50.82
6393;BME280;3229;42.674;23.282;2023-02-04T11:44:25;94018.63;;;12.97;50.78
6393;BME280;3229;42.674;23.282;2023-02-04T11:46:52;94015.06;;;12.98;50.85
6393;BME280;3229;42.674;23.282;2023-02-04T11:49:21;94020.66;;;13.02;50.78
6393;BME280;3229;42.674;23.282;2023-02-04T11:51:48;94020.16;;;13.06;50.73
6393;BME280;3229;42.674;23.282;2023-02-04T11:54:16;94020.63;;;13.10;50.81
6393;BME280;3229;42.674;23.282;2023-02-04T11:56:45;94018.69;;;13.12;50.93
6393;BME280;3229;42.674;23.282;2023-02-04T11:59:13;94015.16;;;13.13;50.83
6393;BME280;3229;42.674;23.282;2023-02-04T12:01:42;94013.41;;;13.14;50.91
6393;BME280;3229;42.674;23.282;2023-02-04T12:04:21;94017.88;;;13.12;50.79
6393;BME280;3229;42.674;23.282;2023-02-04T12:06:56;94018.25;;;13.09;50.87
6393;BME280;3229;42.674;23.282;2023-02-04T12:09:25;94018.41;;;13.07;50.95
6393;BME280;3229;42.674;23.282;2023-02-04T12:11:55;94014.41;;;13.04;51.03
6393;BME280;3229;42.674;23.282;2023-02-04T12:14:27;94008.81;;;13.01;50.88
6393;BME280;3229;42.674;23.282;2023-02-04T12:16:54;94005.59;;;12.99;50.92
6393;BME280;3229;42.674;23.282;2023-02-04T12:19:22;93973.81;;;12.77;50.99
6393;BME280;3229;42.674;23.282;2023-02-04T12:21:48;94001.84;;;12.87;51.11
6393;BME280;3229;42.674;23.282;2023-02-04T12:24:15;94011.13;;;12.88;51.20
6393;BME280;3229;42.674;23.282;2023-02-04T12:26:42;93940.00;;;12.42;51.32
6393;BME280;3229;42.674;23.282;2023-02-04T12:29:09;94000.72;;;12.81;51.28
6393;BME280;3229;42.674;23.282;2023-02-04T12:31:37;93998.34;;;12.79;51.25
6393;BME280;3229;42.674;23.282;2023-02-04T12:34:04;93996.09;;;12.76;51.52
6393;BME280;3229;42.674;23.282;2023-02-04T12:36:30;93990.34;;;12.74;51.41
6393;BME280;3229;42.674;23.282;2023-02-04T12:38:57;93992.28;;;12.72;51.47
6393;BME280;3229;42.674;23.282;2023-02-04T12:41:24;94001.91;;;12.70;51.56
6393;BME280;3229;42.674;23.282;2023-02-04T12:43:51;93985.75;;;12.62;51.46
6393;BME280;3229;42.674;23.282;2023-02-04T12:46:20;93995.53;;;12.66;51.52
6393;BME280;3229;42.674;23.282;2023-02-04T12:48:48;93995.66;;;12.65;51.30
6393;BME280;3229;42.674;23.282;2023-02-04T12:51:14;94002.75;;;12.63;51.31
6393;BME280;3229;42.674;23.282;2023-02-04T12:53:41;93996.03;;;12.62;51.55
6393;BME280;3229;42.674;23.282;2023-02-04T12:56:08;93991.84;;;12.61;51.37
6393;BME280;3229;42.674;23.282;2023-02-04T12:58:35;93995.22;;;12.61;51.27
6393;BME280;3229;42.674;23.282;2023-02-04T13:01:01;93985.00;;;12.53;51.41
6393;BME280;3229;42.674;23.282;2023-02-04T13:03:28;93991.72;;;12.54;51.53
6393;BME280;3229;42.674;23.282;2023-02-04T13:05:57;93994.78;;;12.49;51.33
6393;BME280;3229;42.674;23.282;2023-02-04T13:08:24;94005.38;;;12.46;51.38
6393;BME280;3229;42.674;23.282;2023-02-04T13:10:51;94008.25;;;12.43;51.35
6393;BME280;3229;42.674;23.282;2023-02-04T13:13:18;94011.19;;;12.40;51.40
6393;BME280;3229;42.674;23.282;2023-02-04T13:15:45;93997.09;;;12.36;51.41
6393;BME280;3229;42.674;23.282;2023-02-04T13:18:11;94005.91;;;12.34;51.51
6393;BME280;3229;42.674;23.282;2023-02-04T13:20:38;94004.00;;;12.27;51.53